sensor_id;sensor_type;location;lat;lon;timestamp;temperature;humidity
24326;DHT22;12448;45.532;5.290;2022-09-09T00:00:15;20.60;76.70
24326;DHT22;12448;45.532;5.290;2022-09-09T00:05:35;20.50;77.00
24326;DHT22;12448;45.532;5.290;2022-09-09T00:08:06;20.50;77.00
24326;DHT22;12448;45.532;5.290;2022-09-09T00:10:39;20.50;77.30
24326;DHT22;12448;45.532;5.290;2022-09-09T00:13:16;20.50;77.40
24326;DHT22;12448;45.532;5.290;2022-09-09T00:22:35;20.40;77.60
24326;DHT22;12448;45.532;5.290;2022-09-09T00:35:57;20.30;77.70
24326;DHT22;12448;45.532;5.290;2022-09-09T00:38:35;20.20;77.60
24326;DHT22;12448;45.532;5.290;2022-09-09T00:45:02;20.10;77.90
24326;DHT22;12448;45.532;5.290;2022-09-09T00:48:41;20.10;78.00
24326;DHT22;12448;45.532;5.290;2022-09-09T00:51:21;20.00;77.90
24326;DHT22;12448;45.532;5.290;2022-09-09T00:57:15;20.00;78.20
24326;DHT22;12448;45.532;5.290;2022-09-09T01:00:45;20.10;77.50
24326;DHT22;12448;45.532;5.290;2022-09-09T01:03:37;20.00;76.40
24326;DHT22;12448;45.532;5.290;2022-09-09T01:06:43;19.90;75.70
24326;DHT22;12448;45.532;5.290;2022-09-09T01:15:22;19.80;76.10
24326;DHT22;12448;45.532;5.290;2022-09-09T01:17:52;19.80;76.10
24326;DHT22;12448;45.532;5.290;2022-09-09T01:26:37;19.70;75.10
24326;DHT22;12448;45.532;5.290;2022-09-09T01:29:10;19.70;75.00
24326;DHT22;12448;45.532;5.290;2022-09-09T01:38:39;19.60;75.90
24326;DHT22;12448;45.532;5.290;2022-09-09T01:41:13;19.60;76.20
24326;DHT22;12448;45.532;5.290;2022-09-09T01:44:09;19.60;76.60
24326;DHT22;12448;45.532;5.290;2022-09-09T01:46:35;19.60;77.30
24326;DHT22;12448;45.532;5.290;2022-09-09T01:49:02;19.60;77.20
24326;DHT22;12448;45.532;5.290;2022-09-09T01:51:30;19.60;77.20
24326;DHT22;12448;45.532;5.290;2022-09-09T01:53:56;19.60;77.20
24326;DHT22;12448;45.532;5.290;2022-09-09T01:56:40;19.60;76.90
24326;DHT22;12448;45.532;5.290;2022-09-09T02:02:19;19.50;75.50
24326;DHT22;12448;45.532;5.290;2022-09-09T02:04:54;19.50;74.90
24326;DHT22;12448;45.532;5.290;2022-09-09T02:10:46;19.50;74.90
24326;DHT22;12448;45.532;5.290;2022-09-09T02:13:20;19.50;74.90
24326;DHT22;12448;45.532;5.290;2022-09-09T02:16:26;19.40;74.90
24326;DHT22;12448;45.532;5.290;2022-09-09T02:19:46;19.40;74.80
24326;DHT22;12448;45.532;5.290;2022-09-09T02:22:16;19.40;74.80
24326;DHT22;12448;45.532;5.290;2022-09-09T02:24:44;19.30;74.20
24326;DHT22;12448;45.532;5.290;2022-09-09T02:27:45;19.30;74.40
24326;DHT22;12448;45.532;5.290;2022-09-09T02:34:04;19.20;74.60
24326;DHT22;12448;45.532;5.290;2022-09-09T02:36:57;19.30;74.70
24326;DHT22;12448;45.532;5.290;2022-09-09T02:39:41;19.30;74.80
24326;DHT22;12448;45.532;5.290;2022-09-09T02:42:10;19.30;74.70
24326;DHT22;12448;45.532;5.290;2022-09-09T02:44:36;19.30;75.10
24326;DHT22;12448;45.532;5.290;2022-09-09T02:55:41;19.20;73.90
24326;DHT22;12448;45.532;5.290;2022-09-09T02:59:06;19.20;74.20
24326;DHT22;12448;45.532;5.290;2022-09-09T03:01:59;19.20;74.40
24326;DHT22;12448;45.532;5.290;2022-09-09T03:04:34;19.20;74.10
24326;DHT22;12448;45.532;5.290;2022-09-09T03:07:34;19.20;73.80
24326;DHT22;12448;45.532;5.290;2022-09-09T03:10:09;19.20;73.50
24326;DHT22;12448;45.532;5.290;2022-09-09T03:12:38;19.10;73.50
24326;DHT22;12448;45.532;5.290;2022-09-09T03:15:05;19.10;73.20
24326;DHT22;12448;45.532;5.290;2022-09-09T03:20:36;19.10;73.30
24326;DHT22;12448;45.532;5.290;2022-09-09T03:23:02;19.00;73.20
24326;DHT22;12448;45.532;5.290;2022-09-09T03:25:57;18.90;73.30
24326;DHT22;12448;45.532;5.290;2022-09-09T03:29:18;18.80;73.70
24326;DHT22;12448;45.532;5.290;2022-09-09T03:31:45;18.80;74.10
24326;DHT22;12448;45.532;5.290;2022-09-09T03:34:13;18.70;74.00
24326;DHT22;12448;45.532;5.290;2022-09-09T03:36:45;18.70;74.10
24326;DHT22;12448;45.532;5.290;2022-09-09T03:39:30;18.60;74.40
24326;DHT22;12448;45.532;5.290;2022-09-09T03:41:58;18.60;74.20
24326;DHT22;12448;45.532;5.290;2022-09-09T03:44:52;18.50;74.50
24326;DHT22;12448;45.532;5.290;2022-09-09T03:47:21;18.50;74.50
24326;DHT22;12448;45.532;5.290;2022-09-09T03:49:48;18.50;74.50
24326;DHT22;12448;45.532;5.290;2022-09-09T03:52:19;18.50;74.40
24326;DHT22;12448;45.532;5.290;2022-09-09T03:54:57;18.30;74.90
24326;DHT22;12448;45.532;5.290;2022-09-09T03:57:29;18.20;75.40
24326;DHT22;12448;45.532;5.290;2022-09-09T04:00:11;18.30;75.40
24326;DHT22;12448;45.532;5.290;2022-09-09T04:05:27;18.20;76.00
24326;DHT22;12448;45.532;5.290;2022-09-09T04:07:53;18.20;76.50
24326;DHT22;12448;45.532;5.290;2022-09-09T04:10:19;18.30;76.80
24326;DHT22;12448;45.532;5.290;2022-09-09T04:13:05;18.40;76.70
24326;DHT22;12448;45.532;5.290;2022-09-09T04:15:44;18.50;76.30
24326;DHT22;12448;45.532;5.290;2022-09-09T04:18:22;18.50;76.40
24326;DHT22;12448;45.532;5.290;2022-09-09T04:21:03;18.50;76.10
24326;DHT22;12448;45.532;5.290;2022-09-09T04:23:45;18.50;76.10
24326;DHT22;12448;45.532;5.290;2022-09-09T04:26:22;18.50;76.10
24326;DHT22;12448;45.532;5.290;2022-09-09T04:29:14;18.50;76.30
24326;DHT22;12448;45.532;5.290;2022-09-09T04:31:40;18.50;75.70
24326;DHT22;12448;45.532;5.290;2022-09-09T04:34:08;18.40;75.50
24326;DHT22;12448;45.532;5.290;2022-09-09T04:36:49;18.40;75.40
24326;DHT22;12448;45.532;5.290;2022-09-09T04:39:17;18.30;75.90
24326;DHT22;12448;45.532;5.290;2022-09-09T04:41:44;18.30;76.10
24326;DHT22;12448;45.532;5.290;2022-09-09T04:44:22;18.30;76.00
24326;DHT22;12448;45.532;5.290;2022-09-09T04:46:48;18.40;75.30
24326;DHT22;12448;45.532;5.290;2022-09-09T04:49:14;18.30;74.90
24326;DHT22;12448;45.532;5.290;2022-09-09T04:51:40;18.20;74.70
24326;DHT22;12448;45.532;5.290;2022-09-09T04:54:09;18.20;74.90
24326;DHT22;12448;45.532;5.290;2022-09-09T04:56:37;18.10;75.10
24326;DHT22;12448;45.532;5.290;2022-09-09T04:59:03;18.10;75.40
24326;DHT22;12448;45.532;5.290;2022-09-09T05:01:32;18.00;75.50
24326;DHT22;12448;45.532;5.290;2022-09-09T05:03:58;18.00;75.70
24326;DHT22;12448;45.532;5.290;2022-09-09T05:06:24;17.90;76.10
24326;DHT22;12448;45.532;5.290;2022-09-09T05:08:50;17.90;76.40
24326;DHT22;12448;45.532;5.290;2022-09-09T05:11:19;17.80;76.70
24326;DHT22;12448;45.532;5.290;2022-09-09T05:13:46;17.80;77.00
24326;DHT22;12448;45.532;5.290;2022-09-09T05:16:13;17.90;77.10
24326;DHT22;12448;45.532;5.290;2022-09-09T05:18:40;18.00;76.90
24326;DHT22;12448;45.532;5.290;2022-09-09T05:21:28;18.10;77.00
24326;DHT22;12448;45.532;5.290;2022-09-09T05:24:15;18.30;76.60
24326;DHT22;12448;45.532;5.290;2022-09-09T05:26:45;18.30;76.40
24326;DHT22;12448;45.532;5.290;2022-09-09T05:29:14;18.40;76.20
24326;DHT22;12448;45.532;5.290;2022-09-09T05:32:26;18.50;76.10
24326;DHT22;12448;45.532;5.290;2022-09-09T05:34:56;18.60;75.90
24326;DHT22;12448;45.532;5.290;2022-09-09T05:37:59;18.60;75.60
24326;DHT22;12448;45.532;5.290;2022-09-09T05:40:37;18.60;75.30
24326;DHT22;12448;45.532;5.290;2022-09-09T05:43:29;18.70;75.10
24326;DHT22;12448;45.532;5.290;2022-09-09T05:46:49;18.70;74.90
24326;DHT22;12448;45.532;5.290;2022-09-09T05:49:39;18.70;74.80
24326;DHT22;12448;45.532;5.290;2022-09-09T05:52:28;18.80;74.60
24326;DHT22;12448;45.532;5.290;2022-09-09T05:55:16;18.80;74.40
24326;DHT22;12448;45.532;5.290;2022-09-09T06:01:32;18.80;74.20
24326;DHT22;12448;45.532;5.290;2022-09-09T06:08:09;18.80;74.80
24326;DHT22;12448;45.532;5.290;2022-09-09T06:11:17;18.70;75.20
24326;DHT22;12448;45.532;5.290;2022-09-09T06:17:02;18.50;75.80
24326;DHT22;12448;45.532;5.290;2022-09-09T06:20:20;18.60;75.40
24326;DHT22;12448;45.532;5.290;2022-09-09T06:26:39;18.70;74.70
24326;DHT22;12448;45.532;5.290;2022-09-09T06:35:33;18.50;74.80
24326;DHT22;12448;45.532;5.290;2022-09-09T06:38:08;18.50;74.80
24326;DHT22;12448;45.532;5.290;2022-09-09T06:40:36;18.40;74.80
24326;DHT22;12448;45.532;5.290;2022-09-09T06:43:05;18.40;74.90
24326;DHT22;12448;45.532;5.290;2022-09-09T06:45:31;18.40;75.10
24326;DHT22;12448;45.532;5.290;2022-09-09T06:47:57;18.50;75.30
24326;DHT22;12448;45.532;5.290;2022-09-09T06:57:12;18.60;75.40
24326;DHT22;12448;45.532;5.290;2022-09-09T06:59:54;18.70;75.00
24326;DHT22;12448;45.532;5.290;2022-09-09T07:02:32;18.80;74.40
24326;DHT22;12448;45.532;5.290;2022-09-09T07:05:07;18.90;74.00
24326;DHT22;12448;45.532;5.290;2022-09-09T07:07:42;18.90;73.90
24326;DHT22;12448;45.532;5.290;2022-09-09T07:10:12;18.90;73.50
24326;DHT22;12448;45.532;5.290;2022-09-09T07:15:51;19.00;72.50
24326;DHT22;12448;45.532;5.290;2022-09-09T07:19:03;19.00;71.70
24326;DHT22;12448;45.532;5.290;2022-09-09T07:21:48;19.10;72.10
24326;DHT22;12448;45.532;5.290;2022-09-09T07:24:25;19.10;71.50
24326;DHT22;12448;45.532;5.290;2022-09-09T07:26:58;19.00;71.30
24326;DHT22;12448;45.532;5.290;2022-09-09T07:29:31;19.00;71.10
24326;DHT22;12448;45.532;5.290;2022-09-09T07:32:19;19.00;71.20
24326;DHT22;12448;45.532;5.290;2022-09-09T07:35:21;19.10;70.40
24326;DHT22;12448;45.532;5.290;2022-09-09T07:41:35;19.30;70.60
24326;DHT22;12448;45.532;5.290;2022-09-09T07:44:28;19.40;70.40
24326;DHT22;12448;45.532;5.290;2022-09-09T07:47:16;19.50;69.80
24326;DHT22;12448;45.532;5.290;2022-09-09T08:01:07;19.60;68.90
24326;DHT22;12448;45.532;5.290;2022-09-09T08:07:23;19.70;68.80
24326;DHT22;12448;45.532;5.290;2022-09-09T08:13:22;19.70;67.10
24326;DHT22;12448;45.532;5.290;2022-09-09T08:26:19;19.50;67.70
24326;DHT22;12448;45.532;5.290;2022-09-09T08:29:58;19.50;68.20
24326;DHT22;12448;45.532;5.290;2022-09-09T08:32:43;19.50;67.00
24326;DHT22;12448;45.532;5.290;2022-09-09T08:35:29;19.40;66.70
24326;DHT22;12448;45.532;5.290;2022-09-09T08:38:09;19.50;66.30
24326;DHT22;12448;45.532;5.290;2022-09-09T08:51:35;19.30;66.50
24326;DHT22;12448;45.532;5.290;2022-09-09T08:55:08;19.40;64.80
24326;DHT22;12448;45.532;5.290;2022-09-09T08:58:32;19.40;64.50
24326;DHT22;12448;45.532;5.290;2022-09-09T09:07:07;19.60;64.30
24326;DHT22;12448;45.532;5.290;2022-09-09T09:12:21;19.80;64.30
24326;DHT22;12448;45.532;5.290;2022-09-09T09:15:49;19.90;64.30
24326;DHT22;12448;45.532;5.290;2022-09-09T09:18:26;20.00;63.10
24326;DHT22;12448;45.532;5.290;2022-09-09T09:23:55;20.10;62.80
24326;DHT22;12448;45.532;5.290;2022-09-09T09:26:24;20.20;63.20
24326;DHT22;12448;45.532;5.290;2022-09-09T09:28:55;20.30;63.20
24326;DHT22;12448;45.532;5.290;2022-09-09T09:31:22;20.50;62.00
24326;DHT22;12448;45.532;5.290;2022-09-09T09:33:53;20.60;61.40
24326;DHT22;12448;45.532;5.290;2022-09-09T09:36:23;20.80;62.80
24326;DHT22;12448;45.532;5.290;2022-09-09T09:38:57;20.90;59.70
24326;DHT22;12448;45.532;5.290;2022-09-09T09:43:58;20.90;58.10
24326;DHT22;12448;45.532;5.290;2022-09-09T09:46:26;20.80;58.60
24326;DHT22;12448;45.532;5.290;2022-09-09T09:48:59;20.60;59.20
24326;DHT22;12448;45.532;5.290;2022-09-09T09:51:26;20.50;60.50
24326;DHT22;12448;45.532;5.290;2022-09-09T09:53:53;20.40;59.30
24326;DHT22;12448;45.532;5.290;2022-09-09T09:56:27;20.50;60.10
24326;DHT22;12448;45.532;5.290;2022-09-09T09:58:54;20.60;60.20
24326;DHT22;12448;45.532;5.290;2022-09-09T10:01:31;20.70;60.30
24326;DHT22;12448;45.532;5.290;2022-09-09T10:04:18;20.80;60.50
24326;DHT22;12448;45.532;5.290;2022-09-09T10:06:45;20.90;59.70
24326;DHT22;12448;45.532;5.290;2022-09-09T10:09:30;20.80;59.00
24326;DHT22;12448;45.532;5.290;2022-09-09T10:20:44;20.90;57.50
24326;DHT22;12448;45.532;5.290;2022-09-09T10:26:18;20.80;57.90
24326;DHT22;12448;45.532;5.290;2022-09-09T10:29:14;21.00;57.60
24326;DHT22;12448;45.532;5.290;2022-09-09T10:37:54;21.30;55.90
24326;DHT22;12448;45.532;5.290;2022-09-09T10:53:24;21.50;55.40
24326;DHT22;12448;45.532;5.290;2022-09-09T10:56:09;21.40;55.20
24326;DHT22;12448;45.532;5.290;2022-09-09T10:58:49;21.40;55.20
24326;DHT22;12448;45.532;5.290;2022-09-09T11:04:49;21.60;55.10
24326;DHT22;12448;45.532;5.290;2022-09-09T11:10:06;22.00;55.30
24326;DHT22;12448;45.532;5.290;2022-09-09T11:12:34;22.10;54.50
24326;DHT22;12448;45.532;5.290;2022-09-09T11:15:22;22.30;54.60
24326;DHT22;12448;45.532;5.290;2022-09-09T11:18:01;22.50;53.90
24326;DHT22;12448;45.532;5.290;2022-09-09T11:20:29;22.60;53.90
24326;DHT22;12448;45.532;5.290;2022-09-09T11:23:12;22.70;53.60
24326;DHT22;12448;45.532;5.290;2022-09-09T11:25:57;22.80;53.40
24326;DHT22;12448;45.532;5.290;2022-09-09T11:34:35;22.80;51.80
24326;DHT22;12448;45.532;5.290;2022-09-09T11:40:28;22.60;53.70
24326;DHT22;12448;45.532;5.290;2022-09-09T11:45:34;22.80;52.30
24326;DHT22;12448;45.532;5.290;2022-09-09T11:48:02;22.80;52.20
24326;DHT22;12448;45.532;5.290;2022-09-09T11:50:34;22.80;50.20
24326;DHT22;12448;45.532;5.290;2022-09-09T11:55:39;22.70;50.80
24326;DHT22;12448;45.532;5.290;2022-09-09T11:58:05;22.50;51.90
24326;DHT22;12448;45.532;5.290;2022-09-09T12:00:42;22.40;52.30
24326;DHT22;12448;45.532;5.290;2022-09-09T12:17:22;23.00;50.20
24326;DHT22;12448;45.532;5.290;2022-09-09T12:20:19;23.20;50.40
24326;DHT22;12448;45.532;5.290;2022-09-09T12:28:36;23.60;48.90
24326;DHT22;12448;45.532;5.290;2022-09-09T12:31:12;23.70;47.90
24326;DHT22;12448;45.532;5.290;2022-09-09T12:33:43;23.60;47.70
24326;DHT22;12448;45.532;5.290;2022-09-09T12:36:17;23.50;47.60
24326;DHT22;12448;45.532;5.290;2022-09-09T12:38:45;23.40;48.80
24326;DHT22;12448;45.532;5.290;2022-09-09T12:41:22;23.40;49.50
24326;DHT22;12448;45.532;5.290;2022-09-09T12:43:48;23.50;49.10
24326;DHT22;12448;45.532;5.290;2022-09-09T12:46:31;23.60;49.10
24326;DHT22;12448;45.532;5.290;2022-09-09T12:48:58;23.80;47.90
24326;DHT22;12448;45.532;5.290;2022-09-09T12:51:30;23.90;47.70
24326;DHT22;12448;45.532;5.290;2022-09-09T12:53:56;24.00;47.10
24326;DHT22;12448;45.532;5.290;2022-09-09T12:56:29;24.00;47.60
24326;DHT22;12448;45.532;5.290;2022-09-09T12:58:57;24.00;47.60
24326;DHT22;12448;45.532;5.290;2022-09-09T13:01:29;23.90;45.40
24326;DHT22;12448;45.532;5.290;2022-09-09T13:03:55;23.90;46.90
24326;DHT22;12448;45.532;5.290;2022-09-09T13:06:26;24.00;47.00
24326;DHT22;12448;45.532;5.290;2022-09-09T13:08:53;24.00;45.50
24326;DHT22;12448;45.532;5.290;2022-09-09T13:11:35;23.80;45.70
24326;DHT22;12448;45.532;5.290;2022-09-09T13:14:02;23.80;46.60
24326;DHT22;12448;45.532;5.290;2022-09-09T13:16:30;23.70;46.20
24326;DHT22;12448;45.532;5.290;2022-09-09T13:19:10;23.60;47.00
24326;DHT22;12448;45.532;5.290;2022-09-09T13:21:39;23.40;46.60
24326;DHT22;12448;45.532;5.290;2022-09-09T13:24:29;23.30;46.30
24326;DHT22;12448;45.532;5.290;2022-09-09T13:26:57;22.70;47.20
24326;DHT22;12448;45.532;5.290;2022-09-09T13:29:23;23.10;47.00
24326;DHT22;12448;45.532;5.290;2022-09-09T13:31:50;23.00;47.40
24326;DHT22;12448;45.532;5.290;2022-09-09T13:34:29;23.00;47.00
24326;DHT22;12448;45.532;5.290;2022-09-09T13:37:05;23.00;47.20
24326;DHT22;12448;45.532;5.290;2022-09-09T13:39:34;23.10;46.90
24326;DHT22;12448;45.532;5.290;2022-09-09T13:42:02;22.90;47.80
24326;DHT22;12448;45.532;5.290;2022-09-09T13:44:38;22.90;48.50
24326;DHT22;12448;45.532;5.290;2022-09-09T13:47:05;22.90;48.50
24326;DHT22;12448;45.532;5.290;2022-09-09T13:49:32;23.00;48.60
24326;DHT22;12448;45.532;5.290;2022-09-09T13:52:14;22.90;47.60
24326;DHT22;12448;45.532;5.290;2022-09-09T13:54:42;22.90;48.60
24326;DHT22;12448;45.532;5.290;2022-09-09T13:57:20;22.90;48.80
24326;DHT22;12448;45.532;5.290;2022-09-09T13:59:47;22.90;48.00
24326;DHT22;12448;45.532;5.290;2022-09-09T14:02:14;22.80;47.90
24326;DHT22;12448;45.532;5.290;2022-09-09T14:04:40;22.80;47.70
24326;DHT22;12448;45.532;5.290;2022-09-09T14:07:13;22.80;48.30
24326;DHT22;12448;45.532;5.290;2022-09-09T14:09:39;22.90;48.70
24326;DHT22;12448;45.532;5.290;2022-09-09T14:12:09;22.90;48.70
24326;DHT22;12448;45.532;5.290;2022-09-09T14:14:35;23.00;48.40
24326;DHT22;12448;45.532;5.290;2022-09-09T14:17:01;23.00;48.40
24326;DHT22;12448;45.532;5.290;2022-09-09T14:19:27;23.10;48.70
24326;DHT22;12448;45.532;5.290;2022-09-09T14:21:52;23.10;47.60
24326;DHT22;12448;45.532;5.290;2022-09-09T14:24:18;23.00;47.70
24326;DHT22;12448;45.532;5.290;2022-09-09T14:26:47;23.00;48.30
24326;DHT22;12448;45.532;5.290;2022-09-09T14:29:13;22.50;47.90
24326;DHT22;12448;45.532;5.290;2022-09-09T14:31:39;23.10;48.40
24326;DHT22;12448;45.532;5.290;2022-09-09T14:34:04;23.20;48.10
24326;DHT22;12448;45.532;5.290;2022-09-09T14:36:31;23.30;48.00
24326;DHT22;12448;45.532;5.290;2022-09-09T14:38:57;23.40;46.90
24326;DHT22;12448;45.532;5.290;2022-09-09T14:41:24;23.50;46.60
24326;DHT22;12448;45.532;5.290;2022-09-09T14:43:51;23.60;47.00
24326;DHT22;12448;45.532;5.290;2022-09-09T14:46:19;23.80;47.20
24326;DHT22;12448;45.532;5.290;2022-09-09T14:48:45;23.90;47.00
24326;DHT22;12448;45.532;5.290;2022-09-09T14:51:21;24.10;46.60
24326;DHT22;12448;45.532;5.290;2022-09-09T14:53:54;24.20;46.00
24326;DHT22;12448;45.532;5.290;2022-09-09T14:56:22;24.40;46.00
24326;DHT22;12448;45.532;5.290;2022-09-09T14:58:48;24.40;45.70
24326;DHT22;12448;45.532;5.290;2022-09-09T15:01:17;24.50;45.00
24326;DHT22;12448;45.532;5.290;2022-09-09T15:03:52;24.50;45.70
24326;DHT22;12448;45.532;5.290;2022-09-09T15:06:20;24.60;45.30
24326;DHT22;12448;45.532;5.290;2022-09-09T15:08:46;24.50;43.60
24326;DHT22;12448;45.532;5.290;2022-09-09T15:11:13;24.60;43.50
24326;DHT22;12448;45.532;5.290;2022-09-09T15:13:41;24.30;44.70
24326;DHT22;12448;45.532;5.290;2022-09-09T15:18:34;24.50;44.70
24326;DHT22;12448;45.532;5.290;2022-09-09T15:21:02;24.50;44.90
24326;DHT22;12448;45.532;5.290;2022-09-09T15:23:32;24.60;44.10
24326;DHT22;12448;45.532;5.290;2022-09-09T15:25:57;24.60;44.60
24326;DHT22;12448;45.532;5.290;2022-09-09T15:28:23;24.50;44.70
24326;DHT22;12448;45.532;5.290;2022-09-09T15:30:50;24.50;45.20
24326;DHT22;12448;45.532;5.290;2022-09-09T15:33:18;24.40;45.60
24326;DHT22;12448;45.532;5.290;2022-09-09T15:35:44;24.30;45.60
24326;DHT22;12448;45.532;5.290;2022-09-09T15:38:09;24.30;46.20
24326;DHT22;12448;45.532;5.290;2022-09-09T15:40:35;24.30;46.10
24326;DHT22;12448;45.532;5.290;2022-09-09T15:43:01;24.20;46.60
24326;DHT22;12448;45.532;5.290;2022-09-09T15:45:28;24.20;46.30
24326;DHT22;12448;45.532;5.290;2022-09-09T15:47:56;24.20;45.70
24326;DHT22;12448;45.532;5.290;2022-09-09T15:50:22;24.20;45.40
24326;DHT22;12448;45.532;5.290;2022-09-09T15:52:48;24.10;45.10
24326;DHT22;12448;45.532;5.290;2022-09-09T15:55:13;24.10;45.80
24326;DHT22;12448;45.532;5.290;2022-09-09T15:57:39;24.10;46.60
24326;DHT22;12448;45.532;5.290;2022-09-09T16:00:06;24.00;46.50
24326;DHT22;12448;45.532;5.290;2022-09-09T16:02:32;24.00;46.20
24326;DHT22;12448;45.532;5.290;2022-09-09T16:04:58;23.90;46.10
24326;DHT22;12448;45.532;5.290;2022-09-09T16:07:24;23.80;46.70
24326;DHT22;12448;45.532;5.290;2022-09-09T16:09:49;23.80;47.00
24326;DHT22;12448;45.532;5.290;2022-09-09T16:12:18;23.80;47.30
24326;DHT22;12448;45.532;5.290;2022-09-09T16:14:44;23.70;47.40
24326;DHT22;12448;45.532;5.290;2022-09-09T16:17:10;23.70;48.10
24326;DHT22;12448;45.532;5.290;2022-09-09T16:19:36;23.70;48.50
24326;DHT22;12448;45.532;5.290;2022-09-09T16:22:03;23.80;48.90
24326;DHT22;12448;45.532;5.290;2022-09-09T16:24:29;23.80;49.00
24326;DHT22;12448;45.532;5.290;2022-09-09T16:26:55;23.80;48.50
24326;DHT22;12448;45.532;5.290;2022-09-09T16:29:22;23.80;48.00
24326;DHT22;12448;45.532;5.290;2022-09-09T16:31:49;23.80;47.90
24326;DHT22;12448;45.532;5.290;2022-09-09T16:34:16;23.70;47.40
24326;DHT22;12448;45.532;5.290;2022-09-09T16:36:43;23.70;47.90
24326;DHT22;12448;45.532;5.290;2022-09-09T16:39:11;23.60;47.20
24326;DHT22;12448;45.532;5.290;2022-09-09T16:41:38;23.50;47.00
24326;DHT22;12448;45.532;5.290;2022-09-09T16:44:07;23.40;47.30
24326;DHT22;12448;45.532;5.290;2022-09-09T16:46:35;23.40;47.50
24326;DHT22;12448;45.532;5.290;2022-09-09T16:49:03;23.30;47.80
24326;DHT22;12448;45.532;5.290;2022-09-09T16:51:31;23.20;47.60
24326;DHT22;12448;45.532;5.290;2022-09-09T16:54:01;23.20;48.10
24326;DHT22;12448;45.532;5.290;2022-09-09T16:56:29;23.20;48.10
24326;DHT22;12448;45.532;5.290;2022-09-09T16:59:00;23.20;48.50
24326;DHT22;12448;45.532;5.290;2022-09-09T17:01:29;23.10;48.80
24326;DHT22;12448;45.532;5.290;2022-09-09T17:03:57;23.20;49.70
24326;DHT22;12448;45.532;5.290;2022-09-09T17:06:23;23.20;50.50
24326;DHT22;12448;45.532;5.290;2022-09-09T17:08:54;23.20;50.60
24326;DHT22;12448;45.532;5.290;2022-09-09T17:11:20;23.20;50.00
24326;DHT22;12448;45.532;5.290;2022-09-09T17:13:47;23.20;49.90
24326;DHT22;12448;45.532;5.290;2022-09-09T17:16:14;23.20;50.00
24326;DHT22;12448;45.532;5.290;2022-09-09T17:18:41;23.20;50.40
24326;DHT22;12448;45.532;5.290;2022-09-09T17:21:12;23.20;50.10
24326;DHT22;12448;45.532;5.290;2022-09-09T17:23:39;23.20;49.90
24326;DHT22;12448;45.532;5.290;2022-09-09T17:26:07;23.10;49.80
24326;DHT22;12448;45.532;5.290;2022-09-09T17:28:36;23.10;50.00
24326;DHT22;12448;45.532;5.290;2022-09-09T17:31:04;23.10;50.00
24326;DHT22;12448;45.532;5.290;2022-09-09T17:33:33;23.00;50.00
24326;DHT22;12448;45.532;5.290;2022-09-09T17:36:02;23.00;50.20
24326;DHT22;12448;45.532;5.290;2022-09-09T17:38:29;23.00;50.40
24326;DHT22;12448;45.532;5.290;2022-09-09T17:41:10;23.00;50.50
24326;DHT22;12448;45.532;5.290;2022-09-09T17:43:36;23.00;50.40
24326;DHT22;12448;45.532;5.290;2022-09-09T17:48:35;23.00;51.30
24326;DHT22;12448;45.532;5.290;2022-09-09T17:51:03;22.90;51.60
24326;DHT22;12448;45.532;5.290;2022-09-09T17:53:30;22.90;52.00
24326;DHT22;12448;45.532;5.290;2022-09-09T17:56:02;22.80;52.30
24326;DHT22;12448;45.532;5.290;2022-09-09T17:58:28;22.80;52.30
24326;DHT22;12448;45.532;5.290;2022-09-09T18:00:53;22.80;52.40
24326;DHT22;12448;45.532;5.290;2022-09-09T18:03:20;22.70;52.30
24326;DHT22;12448;45.532;5.290;2022-09-09T18:05:46;22.70;52.30
24326;DHT22;12448;45.532;5.290;2022-09-09T18:08:11;22.70;52.00
24326;DHT22;12448;45.532;5.290;2022-09-09T18:10:38;22.70;51.90
24326;DHT22;12448;45.532;5.290;2022-09-09T18:13:04;22.60;51.90
24326;DHT22;12448;45.532;5.290;2022-09-09T18:15:37;22.60;52.00
24326;DHT22;12448;45.532;5.290;2022-09-09T18:18:03;22.60;52.10
24326;DHT22;12448;45.532;5.290;2022-09-09T18:20:31;22.60;52.20
24326;DHT22;12448;45.532;5.290;2022-09-09T18:22:56;22.50;53.10
24326;DHT22;12448;45.532;5.290;2022-09-09T18:25:22;22.40;53.70
24326;DHT22;12448;45.532;5.290;2022-09-09T18:27:49;22.20;54.10
24326;DHT22;12448;45.532;5.290;2022-09-09T18:30:16;22.00;54.50
24326;DHT22;12448;45.532;5.290;2022-09-09T18:35:43;21.80;54.70
24326;DHT22;12448;45.532;5.290;2022-09-09T18:38:13;21.80;55.00
24326;DHT22;12448;45.532;5.290;2022-09-09T18:40:42;21.80;55.10
24326;DHT22;12448;45.532;5.290;2022-09-09T18:43:08;21.80;55.50
24326;DHT22;12448;45.532;5.290;2022-09-09T18:45:49;21.70;56.10
24326;DHT22;12448;45.532;5.290;2022-09-09T18:48:15;21.60;56.30
24326;DHT22;12448;45.532;5.290;2022-09-09T18:50:40;21.50;54.30
24326;DHT22;12448;45.532;5.290;2022-09-09T18:53:06;21.50;54.00
24326;DHT22;12448;45.532;5.290;2022-09-09T18:55:31;21.50;54.10
24326;DHT22;12448;45.532;5.290;2022-09-09T18:57:57;21.40;54.30
24326;DHT22;12448;45.532;5.290;2022-09-09T19:00:24;21.40;54.90
24326;DHT22;12448;45.532;5.290;2022-09-09T19:02:50;21.40;56.00
24326;DHT22;12448;45.532;5.290;2022-09-09T19:05:17;21.00;60.50
24326;DHT22;12448;45.532;5.290;2022-09-09T19:07:43;20.90;62.10
24326;DHT22;12448;45.532;5.290;2022-09-09T19:10:11;20.80;64.80
24326;DHT22;12448;45.532;5.290;2022-09-09T19:12:43;20.30;67.80
24326;DHT22;12448;45.532;5.290;2022-09-09T19:15:09;20.10;69.90
24326;DHT22;12448;45.532;5.290;2022-09-09T19:17:38;19.80;71.90
24326;DHT22;12448;45.532;5.290;2022-09-09T19:20:04;19.70;72.90
24326;DHT22;12448;45.532;5.290;2022-09-09T19:22:33;19.40;74.20
24326;DHT22;12448;45.532;5.290;2022-09-09T19:24:59;19.20;74.40
24326;DHT22;12448;45.532;5.290;2022-09-09T19:27:27;19.10;75.80
24326;DHT22;12448;45.532;5.290;2022-09-09T19:29:53;19.00;76.30
24326;DHT22;12448;45.532;5.290;2022-09-09T19:32:19;18.80;77.00
24326;DHT22;12448;45.532;5.290;2022-09-09T19:34:44;18.80;77.80
24326;DHT22;12448;45.532;5.290;2022-09-09T19:37:10;18.80;77.90
24326;DHT22;12448;45.532;5.290;2022-09-09T19:39:36;18.70;78.00
24326;DHT22;12448;45.532;5.290;2022-09-09T19:42:02;18.80;78.20
24326;DHT22;12448;45.532;5.290;2022-09-09T19:44:28;18.90;78.00
24326;DHT22;12448;45.532;5.290;2022-09-09T19:46:53;19.00;78.00
24326;DHT22;12448;45.532;5.290;2022-09-09T19:49:19;19.20;77.60
24326;DHT22;12448;45.532;5.290;2022-09-09T19:51:45;19.30;77.30
24326;DHT22;12448;45.532;5.290;2022-09-09T19:54:15;19.50;77.10
24326;DHT22;12448;45.532;5.290;2022-09-09T20:00:39;19.70;76.90
24326;DHT22;12448;45.532;5.290;2022-09-09T20:03:25;19.70;76.70
24326;DHT22;12448;45.532;5.290;2022-09-09T20:06:06;19.70;76.60
24326;DHT22;12448;45.532;5.290;2022-09-09T20:08:39;19.70;76.60
24326;DHT22;12448;45.532;5.290;2022-09-09T20:11:06;19.70;76.60
24326;DHT22;12448;45.532;5.290;2022-09-09T20:13:35;19.70;76.70